Terminal Aerodrome Forecast
Issued by NWS

Home | Current Version | Previous Version | Text Only | Print | Product List | Glossary On
Versions: 1 2 3 4 5 6 7 8 9 10 11 12 13 14 15 16 17 18 19 20 21 22 23 24
000
FTUS46 KPQR 192328
TAFONP
TAF
KONP 192328Z 2000/2024 19012KT P6SM -RA SCT015 OVC025
     FM200600 22015G21KT 5SM -SHRA SCT020 OVC035
     FM200800 22009KT P6SM SCT020 OVC035
     FM201200 20009KT P6SM VCSH SCT020 BKN035 OVC060
     FM201800 19012G18KT 6SM -RA OVC050=

USA.gov is the U.S. government's official web portal to all federal, state and local government web resources and services.